METAR Data
IDs: Format: Raw Decoded Include TAF

Data at: 0255 UTC 12 May 2021

METAR for:TJSJ (San Juan/Marin Intl, PR, US)
Text:TJSJ 120156Z 08006KT 9SM -RA SCT027 BKN050 26/24 A3008 RMK AO2 RAB09 SLP185 P0000 T02560239
Temperature: 25.6°C ( 78°F)
Dewpoint: 23.9°C ( 75°F) [RH = 90%]
Pressure (altimeter):30.08 inches Hg (1018.7 mb) [Sea level pressure: 1018.5 mb]
Winds:from the E (80 degrees) at 7 MPH (6 knots; 3.1 m/s)
Visibility: 9 sm ( 14 km)
Ceiling:5000 feet AGL
Clouds: scattered clouds at 2700 feet AGL, broken clouds at 5000 feet AGL
Weather:-RA (light rain)